Rio Hondo, Texas
Current Conditions -  °F | °C
As of 8:18 AM on Thursday 29 Jan 2015 (Local Time) from KHRL Reporting Station
Haze Haze  
Wind Chill: 14°   Ceiling: Unl
Heat Index: 14°   Visibility: 3mi
Dew Point: 14°   Wind: 0mph
Humidity: 100%   Direction: NA
Pressure: 30.17"   Gusts: NA
Location:  26.24°N, 97.58°W
Report Text: KHRL 291418Z 00000KT 3SM BR CLR 14/14 A3017 RMK AO2 T01440144
Loading
Personal Weather Stations






























Interactive Weather Map New forecast layout! Learn more

10-Day Weather Forecast

Advertisements
Track Severe Weather on mobile